Idumbe Airport


Codes: FZVU/
Name: Idumbe Airport
City: Idumbe
Country: Congo [DRC]
Elevation: 1847 ft.

Photos at Idumbe Airport


   Photos courtesy of SpottingLog. You can add your own sightings and photos by signing up for a free trial today.



No photos found.

Weather at Idumbe Airport


Time (UTC)DescriptionTempratureWindCloud coverageVisibilityPressureHumidity
23-May-2024 18:00Broken Clouds26°C0 mph, 75%10000m1010hPa53%
23-May-2024 21:00Broken Clouds26°C0 mph, NW73%10000m1010hPa56%
24-May-2024 00:00Broken Clouds24°C2 mph, S66%10000m1010hPa65%
24-May-2024 03:00Scattered Clouds22°C0 mph, W50%10000m1011hPa74%
24-May-2024 06:00Broken Clouds24°C0 mph, E73%10000m1012hPa66%
24-May-2024 09:00Broken Clouds33°C2 mph, SE78%10000m1012hPa37%
24-May-2024 12:00Overcast Clouds32°C4 mph, SE88%10000m1009hPa40%
24-May-2024 15:00Broken Clouds33°C2 mph, SE62%10000m1007hPa35%
24-May-2024 18:00Broken Clouds26°C0 mph, NW60%10000m1009hPa56%
24-May-2024 21:00Overcast Clouds23°C0 mph, N88%10000m1011hPa67%
25-May-2024 00:00Broken Clouds22°C2 mph, NW84%10000m1011hPa74%
25-May-2024 03:00Broken Clouds21°C2 mph, NW72%10000m1011hPa84%
25-May-2024 06:00Broken Clouds24°C2 mph, NW52%10000m1013hPa76%
25-May-2024 09:00Broken Clouds31°C4 mph, W55%10000m1013hPa48%
25-May-2024 12:00Scattered Clouds35°C2 mph, SW38%10000m1009hPa34%
25-May-2024 15:00Overcast Clouds31°C2 mph, NW85%10000m1008hPa46%
25-May-2024 18:00Broken Clouds25°C2 mph, NE64%10000m1010hPa67%
25-May-2024 21:00Few Clouds23°C2 mph, N20%10000m1012hPa74%
26-May-2024 00:00Scattered Clouds22°C2 mph, N36%10000m1012hPa79%
26-May-2024 03:00Scattered Clouds21°C2 mph, N34%10000m1011hPa88%
26-May-2024 06:00Broken Clouds24°C2 mph, NW57%10000m1013hPa77%
26-May-2024 09:00Broken Clouds32°C2 mph, W63%10000m1013hPa47%
26-May-2024 12:00Scattered Clouds36°C2 mph, SW47%10000m1009hPa32%
26-May-2024 15:00Overcast Clouds31°C0 mph, NE98%10000m1008hPa47%
26-May-2024 18:00Overcast Clouds25°C2 mph, N97%10000m1011hPa71%
26-May-2024 21:00Broken Clouds24°C2 mph, N69%10000m1012hPa74%
27-May-2024 00:00Broken Clouds23°C2 mph, NW76%10000m1012hPa82%
27-May-2024 03:00Broken Clouds21°C2 mph, NW54%10000m1011hPa89%
27-May-2024 06:00Broken Clouds24°C2 mph, N64%10000m1013hPa76%
27-May-2024 09:00Broken Clouds33°C2 mph, N75%10000m1013hPa44%
27-May-2024 12:00Broken Clouds37°C2 mph, SE84%10000m1009hPa30%
27-May-2024 15:00Overcast Clouds30°C2 mph, NW100%10000m1009hPa47%
27-May-2024 18:00Overcast Clouds26°C2 mph, E97%10000m1011hPa60%
27-May-2024 21:00Overcast Clouds25°C2 mph, NE90%10000m1012hPa69%
28-May-2024 00:00Overcast Clouds23°C0 mph, NW93%10000m1011hPa78%
28-May-2024 03:00Overcast Clouds22°C2 mph, NW96%10000m1012hPa83%
28-May-2024 06:00Overcast Clouds24°C2 mph, NW94%10000m1013hPa74%
28-May-2024 09:00Overcast Clouds27°C0 mph, NE99%10000m1014hPa62%
28-May-2024 12:00Overcast Clouds34°C0 mph, NW88%10000m1010hPa40%
28-May-2024 15:00Broken Clouds31°C2 mph, N60%10000m1009hPa47%